sensor_id;sensor_type;location;lat;lon;timestamp;P1;P2;P0
55304;PMS7003;65692;51.378;19.824;2023-06-22T00:00:48;33.00;29.25;20.50
55304;PMS7003;65692;51.378;19.824;2023-06-22T00:03:16;30.25;30.25;20.25
55304;PMS7003;65692;51.378;19.824;2023-06-22T00:05:43;22.75;21.50;16.00
55304;PMS7003;65692;51.378;19.824;2023-06-22T00:08:10;26.50;21.25;14.50
55304;PMS7003;65692;51.378;19.824;2023-06-22T00:10:36;33.50;29.75;21.75
55304;PMS7003;65692;51.378;19.824;2023-06-22T00:13:03;38.67;33.33;23.67
55304;PMS7003;65692;51.378;19.824;2023-06-22T00:15:29;34.00;32.00;22.25
55304;PMS7003;65692;51.378;19.824;2023-06-22T00:17:56;34.00;31.25;22.00
55304;PMS7003;65692;51.378;19.824;2023-06-22T00:20:23;32.50;31.25;21.50
55304;PMS7003;65692;51.378;19.824;2023-06-22T00:22:54;27.00;24.50;17.75
55304;PMS7003;65692;51.378;19.824;2023-06-22T00:25:21;36.00;28.00;21.25
55304;PMS7003;65692;51.378;19.824;2023-06-22T00:27:48;28.75;24.50;18.00
55304;PMS7003;65692;51.378;19.824;2023-06-22T00:30:18;27.50;25.25;19.75
55304;PMS7003;65692;51.378;19.824;2023-06-22T00:32:45;22.25;21.25;17.25
55304;PMS7003;65692;51.378;19.824;2023-06-22T00:35:12;31.75;29.25;21.25
55304;PMS7003;65692;51.378;19.824;2023-06-22T00:37:39;26.25;25.50;19.50
55304;PMS7003;65692;51.378;19.824;2023-06-22T00:40:08;31.00;28.25;21.00
55304;PMS7003;65692;51.378;19.824;2023-06-22T00:42:37;25.50;22.00;17.00
55304;PMS7003;65692;51.378;19.824;2023-06-22T00:45:05;28.00;27.00;20.00
55304;PMS7003;65692;51.378;19.824;2023-06-22T00:47:33;30.75;25.25;20.00
55304;PMS7003;65692;51.378;19.824;2023-06-22T00:50:00;24.50;23.50;17.75
55304;PMS7003;65692;51.378;19.824;2023-06-22T00:52:27;21.75;20.75;16.50
55304;PMS7003;65692;51.378;19.824;2023-06-22T00:54:56;25.00;23.00;18.50
55304;PMS7003;65692;51.378;19.824;2023-06-22T00:57:24;26.25;24.25;17.00
55304;PMS7003;65692;51.378;19.824;2023-06-22T00:59:54;25.75;23.00;16.00
55304;PMS7003;65692;51.378;19.824;2023-06-22T01:02:21;27.50;25.00;19.00
55304;PMS7003;65692;51.378;19.824;2023-06-22T01:04:47;29.25;29.00;19.50
55304;PMS7003;65692;51.378;19.824;2023-06-22T01:07:20;23.50;23.50;18.50
55304;PMS7003;65692;51.378;19.824;2023-06-22T01:10:08;25.50;23.00;18.50
55304;PMS7003;65692;51.378;19.824;2023-06-22T01:12:39;27.25;24.50;18.25
55304;PMS7003;65692;51.378;19.824;2023-06-22T01:15:49;25.00;23.50;18.50
55304;PMS7003;65692;51.378;19.824;2023-06-22T01:17:56;20.50;18.25;15.25
55304;PMS7003;65692;51.378;19.824;2023-06-22T01:20:23;28.75;25.50;19.00
55304;PMS7003;65692;51.378;19.824;2023-06-22T01:30:33;22.25;22.25;18.50
55304;PMS7003;65692;51.378;19.824;2023-06-22T01:33:04;34.75;26.00;19.50
55304;PMS7003;65692;51.378;19.824;2023-06-22T01:35:32;31.00;24.75;17.75
55304;PMS7003;65692;51.378;19.824;2023-06-22T01:37:59;26.00;23.75;18.50
55304;PMS7003;65692;51.378;19.824;2023-06-22T01:40:26;27.75;23.75;16.75
55304;PMS7003;65692;51.378;19.824;2023-06-22T01:42:54;22.75;21.50;18.25
55304;PMS7003;65692;51.378;19.824;2023-06-22T01:45:21;28.00;28.00;20.00
55304;PMS7003;65692;51.378;19.824;2023-06-22T01:47:47;29.75;27.75;21.00
55304;PMS7003;65692;51.378;19.824;2023-06-22T01:50:14;33.75;25.00;19.00
55304;PMS7003;65692;51.378;19.824;2023-06-22T01:52:41;21.50;19.25;15.50
55304;PMS7003;65692;51.378;19.824;2023-06-22T01:55:08;24.00;23.00;17.50
55304;PMS7003;65692;51.378;19.824;2023-06-22T01:57:34;28.50;27.50;20.50
55304;PMS7003;65692;51.378;19.824;2023-06-22T02:00:03;27.25;22.50;17.00
55304;PMS7003;65692;51.378;19.824;2023-06-22T02:02:36;30.50;25.50;20.00
55304;PMS7003;65692;51.378;19.824;2023-06-22T02:05:06;25.50;21.50;18.25
55304;PMS7003;65692;51.378;19.824;2023-06-22T02:07:36;25.75;24.25;17.75
55304;PMS7003;65692;51.378;19.824;2023-06-22T02:10:04;28.00;24.75;19.00
55304;PMS7003;65692;51.378;19.824;2023-06-22T02:12:32;33.25;28.75;21.25
55304;PMS7003;65692;51.378;19.824;2023-06-22T02:15:00;29.00;26.50;20.50
55304;PMS7003;65692;51.378;19.824;2023-06-22T02:17:27;38.75;34.75;24.00
55304;PMS7003;65692;51.378;19.824;2023-06-22T02:19:53;43.33;36.00;25.00
55304;PMS7003;65692;51.378;19.824;2023-06-22T02:22:20;43.33;38.00;26.00
55304;PMS7003;65692;51.378;19.824;2023-06-22T02:24:46;46.00;39.00;26.67
55304;PMS7003;65692;51.378;19.824;2023-06-22T02:27:13;51.67;41.00;27.00
55304;PMS7003;65692;51.378;19.824;2023-06-22T02:29:39;51.67;40.00;27.00
55304;PMS7003;65692;51.378;19.824;2023-06-22T02:32:06;48.00;38.33;26.00
55304;PMS7003;65692;51.378;19.824;2023-06-22T02:34:32;50.67;43.00;29.00
55304;PMS7003;65692;51.378;19.824;2023-06-22T02:37:00;51.00;41.33;28.00
55304;PMS7003;65692;51.378;19.824;2023-06-22T02:39:27;48.33;39.67;26.00
55304;PMS7003;65692;51.378;19.824;2023-06-22T02:41:54;50.00;38.67;27.67
55304;PMS7003;65692;51.378;19.824;2023-06-22T02:44:20;50.67;39.67;27.00
55304;PMS7003;65692;51.378;19.824;2023-06-22T02:46:47;46.33;38.67;26.33
55304;PMS7003;65692;51.378;19.824;2023-06-22T02:49:14;49.67;41.00;28.00
55304;PMS7003;65692;51.378;19.824;2023-06-22T02:51:42;45.67;38.00;25.67
55304;PMS7003;65692;51.378;19.824;2023-06-22T02:54:08;47.67;38.33;27.00
55304;PMS7003;65692;51.378;19.824;2023-06-22T02:56:35;45.00;38.00;24.67
55304;PMS7003;65692;51.378;19.824;2023-06-22T02:59:02;45.00;39.33;27.33
55304;PMS7003;65692;51.378;19.824;2023-06-22T03:01:29;50.00;40.33;27.33
55304;PMS7003;65692;51.378;19.824;2023-06-22T03:03:56;47.00;38.67;26.67
55304;PMS7003;65692;51.378;19.824;2023-06-22T03:06:23;47.67;38.00;26.00
55304;PMS7003;65692;51.378;19.824;2023-06-22T03:08:58;47.33;40.00;27.00
55304;PMS7003;65692;51.378;19.824;2023-06-22T03:11:24;43.67;37.33;26.00
55304;PMS7003;65692;51.378;19.824;2023-06-22T03:13:51;46.00;37.67;26.67
55304;PMS7003;65692;51.378;19.824;2023-06-22T03:16:19;48.00;39.00;26.67
55304;PMS7003;65692;51.378;19.824;2023-06-22T03:18:45;46.00;38.33;26.67
55304;PMS7003;65692;51.378;19.824;2023-06-22T03:21:12;43.67;37.33;25.00
55304;PMS7003;65692;51.378;19.824;2023-06-22T03:23:38;45.00;39.67;27.33
55304;PMS7003;65692;51.378;19.824;2023-06-22T03:26:05;49.67;40.00;26.33
55304;PMS7003;65692;51.378;19.824;2023-06-22T03:28:31;45.33;36.33;26.00
55304;PMS7003;65692;51.378;19.824;2023-06-22T03:30:58;20.67;13.33;2.67
55304;PMS7003;65692;51.378;19.824;2023-06-22T03:33:24;48.00;38.67;27.00
55304;PMS7003;65692;51.378;19.824;2023-06-22T03:35:51;48.33;38.33;26.33
55304;PMS7003;65692;51.378;19.824;2023-06-22T03:38:17;41.67;35.67;24.67
55304;PMS7003;65692;51.378;19.824;2023-06-22T03:40:44;46.67;39.00;26.67
55304;PMS7003;65692;51.378;19.824;2023-06-22T03:43:10;46.67;39.00;27.33
55304;PMS7003;65692;51.378;19.824;2023-06-22T03:45:37;46.00;37.67;26.67
55304;PMS7003;65692;51.378;19.824;2023-06-22T03:48:03;46.00;37.33;26.00
55304;PMS7003;65692;51.378;19.824;2023-06-22T03:50:30;43.00;37.00;26.67
55304;PMS7003;65692;51.378;19.824;2023-06-22T03:52:57;45.33;38.00;26.67
55304;PMS7003;65692;51.378;19.824;2023-06-22T03:55:24;48.33;38.33;25.33
55304;PMS7003;65692;51.378;19.824;2023-06-22T03:57:50;45.67;37.67;26.00
55304;PMS7003;65692;51.378;19.824;2023-06-22T04:00:16;44.25;37.00;25.00
55304;PMS7003;65692;51.378;19.824;2023-06-22T04:02:43;45.75;35.75;25.75
55304;PMS7003;65692;51.378;19.824;2023-06-22T04:05:10;44.00;36.00;24.00
55304;PMS7003;65692;51.378;19.824;2023-06-22T04:07:36;46.00;38.00;25.33
55304;PMS7003;65692;51.378;19.824;2023-06-22T04:10:06;44.00;35.75;24.00
55304;PMS7003;65692;51.378;19.824;2023-06-22T04:12:32;41.50;36.00;24.75
55304;PMS7003;65692;51.378;19.824;2023-06-22T04:14:59;40.75;35.75;25.50
55304;PMS7003;65692;51.378;19.824;2023-06-22T04:17:25;42.25;37.25;24.75
55304;PMS7003;65692;51.378;19.824;2023-06-22T04:19:52;45.50;36.75;25.00
55304;PMS7003;65692;51.378;19.824;2023-06-22T04:22:18;38.75;34.25;23.00
55304;PMS7003;65692;51.378;19.824;2023-06-22T04:24:44;42.00;34.75;23.75
55304;PMS7003;65692;51.378;19.824;2023-06-22T04:27:11;41.75;33.50;23.25
55304;PMS7003;65692;51.378;19.824;2023-06-22T04:29:37;41.00;34.50;23.75
55304;PMS7003;65692;51.378;19.824;2023-06-22T04:32:04;33.00;30.75;22.25
55304;PMS7003;65692;51.378;19.824;2023-06-22T04:34:31;36.00;31.00;21.25
55304;PMS7003;65692;51.378;19.824;2023-06-22T04:36:58;33.75;31.25;22.75
55304;PMS7003;65692;51.378;19.824;2023-06-22T04:39:24;31.75;31.00;22.75
55304;PMS7003;65692;51.378;19.824;2023-06-22T04:41:53;28.50;27.75;20.00
55304;PMS7003;65692;51.378;19.824;2023-06-22T04:44:21;28.50;26.50;18.00
55304;PMS7003;65692;51.378;19.824;2023-06-22T04:46:51;28.25;26.00;19.00
55304;PMS7003;65692;51.378;19.824;2023-06-22T04:49:20;30.00;26.00;21.00
55304;PMS7003;65692;51.378;19.824;2023-06-22T04:51:48;28.50;27.25;20.75
55304;PMS7003;65692;51.378;19.824;2023-06-22T04:54:14;25.50;24.75;18.25
55304;PMS7003;65692;51.378;19.824;2023-06-22T04:56:41;26.50;24.00;18.25
55304;PMS7003;65692;51.378;19.824;2023-06-22T04:59:07;26.75;24.50;18.50
55304;PMS7003;65692;51.378;19.824;2023-06-22T05:01:34;28.00;23.00;15.75
55304;PMS7003;65692;51.378;19.824;2023-06-22T05:04:01;24.00;22.75;17.25
55304;PMS7003;65692;51.378;19.824;2023-06-22T05:06:30;26.75;26.00;19.50
55304;PMS7003;65692;51.378;19.824;2023-06-22T05:08:56;21.50;21.50;17.00
55304;PMS7003;65692;51.378;19.824;2023-06-22T05:11:27;28.25;26.50;19.75
55304;PMS7003;65692;51.378;19.824;2023-06-22T05:13:54;22.25;21.00;16.25
55304;PMS7003;65692;51.378;19.824;2023-06-22T05:16:20;24.25;23.50;19.00
55304;PMS7003;65692;51.378;19.824;2023-06-22T05:18:53;28.25;26.25;19.25
55304;PMS7003;65692;51.378;19.824;2023-06-22T05:21:25;25.25;24.00;18.00
55304;PMS7003;65692;51.378;19.824;2023-06-22T05:23:52;28.50;23.75;16.75
55304;PMS7003;65692;51.378;19.824;2023-06-22T05:26:19;24.25;21.50;16.50
55304;PMS7003;65692;51.378;19.824;2023-06-22T05:28:46;26.00;23.50;16.25
55304;PMS7003;65692;51.378;19.824;2023-06-22T05:31:14;28.50;25.00;18.00
55304;PMS7003;65692;51.378;19.824;2023-06-22T05:33:43;24.00;18.50;14.00
55304;PMS7003;65692;51.378;19.824;2023-06-22T05:36:10;22.75;22.00;16.75
55304;PMS7003;65692;51.378;19.824;2023-06-22T05:38:36;22.00;21.75;16.25
55304;PMS7003;65692;51.378;19.824;2023-06-22T05:41:03;22.00;19.75;15.75
55304;PMS7003;65692;51.378;19.824;2023-06-22T05:43:30;24.00;22.50;17.00
55304;PMS7003;65692;51.378;19.824;2023-06-22T05:45:56;20.25;20.25;14.50
55304;PMS7003;65692;51.378;19.824;2023-06-22T05:48:23;21.50;19.50;13.75
55304;PMS7003;65692;51.378;19.824;2023-06-22T05:50:50;19.50;18.00;14.75
55304;PMS7003;65692;51.378;19.824;2023-06-22T05:53:16;24.50;23.75;15.75
55304;PMS7003;65692;51.378;19.824;2023-06-22T05:55:43;22.50;20.75;17.25
55304;PMS7003;65692;51.378;19.824;2023-06-22T05:58:09;19.75;18.75;13.75
55304;PMS7003;65692;51.378;19.824;2023-06-22T06:00:36;22.50;21.50;17.00
55304;PMS7003;65692;51.378;19.824;2023-06-22T06:03:02;20.75;20.75;14.00
55304;PMS7003;65692;51.378;19.824;2023-06-22T06:05:30;16.25;16.25;11.75
55304;PMS7003;65692;51.378;19.824;2023-06-22T06:07:57;21.75;18.75;15.75
55304;PMS7003;65692;51.378;19.824;2023-06-22T06:10:24;16.25;16.25;13.50
55304;PMS7003;65692;51.378;19.824;2023-06-22T06:12:51;19.00;18.50;14.75
55304;PMS7003;65692;51.378;19.824;2023-06-22T06:15:18;18.00;17.25;13.00
55304;PMS7003;65692;51.378;19.824;2023-06-22T06:17:45;20.75;18.50;14.50
55304;PMS7003;65692;51.378;19.824;2023-06-22T06:20:12;19.00;18.00;13.50
55304;PMS7003;65692;51.378;19.824;2023-06-22T06:22:38;21.75;20.25;15.50
55304;PMS7003;65692;51.378;19.824;2023-06-22T06:25:05;17.50;16.00;12.25
55304;PMS7003;65692;51.378;19.824;2023-06-22T06:27:32;19.00;17.50;12.25
55304;PMS7003;65692;51.378;19.824;2023-06-22T06:29:58;23.50;19.75;14.50
55304;PMS7003;65692;51.378;19.824;2023-06-22T06:32:25;22.25;19.50;13.25
55304;PMS7003;65692;51.378;19.824;2023-06-22T06:34:51;22.50;17.25;12.75
55304;PMS7003;65692;51.378;19.824;2023-06-22T06:37:18;18.50;17.75;13.00
55304;PMS7003;65692;51.378;19.824;2023-06-22T06:39:45;17.50;17.50;12.50
55304;PMS7003;65692;51.378;19.824;2023-06-22T06:42:12;17.75;16.75;12.25
55304;PMS7003;65692;51.378;19.824;2023-06-22T06:44:38;12.25;12.00;11.50
55304;PMS7003;65692;51.378;19.824;2023-06-22T06:47:05;17.00;15.50;11.25
55304;PMS7003;65692;51.378;19.824;2023-06-22T06:49:32;15.75;11.50;9.50
55304;PMS7003;65692;51.378;19.824;2023-06-22T06:51:59;14.75;10.75;8.25
55304;PMS7003;65692;51.378;19.824;2023-06-22T06:54:25;10.25;10.25;8.25
55304;PMS7003;65692;51.378;19.824;2023-06-22T06:56:53;12.00;11.00;9.00
55304;PMS7003;65692;51.378;19.824;2023-06-22T06:59:20;10.00;10.00;8.75
55304;PMS7003;65692;51.378;19.824;2023-06-22T07:01:46;13.00;11.00;9.25
55304;PMS7003;65692;51.378;19.824;2023-06-22T07:04:15;10.50;10.50;8.00
55304;PMS7003;65692;51.378;19.824;2023-06-22T07:06:41;12.50;12.50;10.00
55304;PMS7003;65692;51.378;19.824;2023-06-22T07:09:09;11.25;9.50;7.75
55304;PMS7003;65692;51.378;19.824;2023-06-22T07:11:35;11.50;10.50;8.75
55304;PMS7003;65692;51.378;19.824;2023-06-22T07:14:02;10.00;8.50;6.25
55304;PMS7003;65692;51.378;19.824;2023-06-22T07:16:29;9.75;9.00;7.25
55304;PMS7003;65692;51.378;19.824;2023-06-22T07:18:57;10.50;10.25;9.00
55304;PMS7003;65692;51.378;19.824;2023-06-22T07:21:24;11.50;10.50;8.00
55304;PMS7003;65692;51.378;19.824;2023-06-22T07:23:50;11.75;10.25;6.25
55304;PMS7003;65692;51.378;19.824;2023-06-22T07:26:16;7.50;7.50;7.00
55304;PMS7003;65692;51.378;19.824;2023-06-22T07:28:43;10.50;9.00;7.00
55304;PMS7003;65692;51.378;19.824;2023-06-22T07:31:09;6.50;6.50;5.75
55304;PMS7003;65692;51.378;19.824;2023-06-22T07:33:36;8.25;7.00;6.00
55304;PMS7003;65692;51.378;19.824;2023-06-22T07:36:02;8.00;8.00;5.50
55304;PMS7003;65692;51.378;19.824;2023-06-22T07:38:34;7.75;6.75;4.75
55304;PMS7003;65692;51.378;19.824;2023-06-22T07:41:01;9.75;9.00;7.25
55304;PMS7003;65692;51.378;19.824;2023-06-22T07:43:31;7.50;7.50;6.50
55304;PMS7003;65692;51.378;19.824;2023-06-22T07:45:59;7.50;7.00;6.00
55304;PMS7003;65692;51.378;19.824;2023-06-22T07:48:26;7.75;7.75;5.50
55304;PMS7003;65692;51.378;19.824;2023-06-22T07:50:53;11.50;8.25;7.00
55304;PMS7003;65692;51.378;19.824;2023-06-22T07:53:20;8.75;8.75;6.75
55304;PMS7003;65692;51.378;19.824;2023-06-22T07:55:46;8.25;7.00;6.00
55304;PMS7003;65692;51.378;19.824;2023-06-22T07:58:15;7.00;7.00;6.00
55304;PMS7003;65692;51.378;19.824;2023-06-22T08:00:46;8.75;8.00;6.00
55304;PMS7003;65692;51.378;19.824;2023-06-22T08:03:13;8.25;8.25;6.00
55304;PMS7003;65692;51.378;19.824;2023-06-22T08:05:40;7.50;6.25;5.00
55304;PMS7003;65692;51.378;19.824;2023-06-22T08:08:06;8.50;8.25;6.00
55304;PMS7003;65692;51.378;19.824;2023-06-22T08:10:33;9.00;9.00;7.25
55304;PMS7003;65692;51.378;19.824;2023-06-22T08:13:00;8.50;6.75;4.75
55304;PMS7003;65692;51.378;19.824;2023-06-22T08:15:27;5.75;5.75;4.00
55304;PMS7003;65692;51.378;19.824;2023-06-22T08:17:55;9.75;8.25;7.00
55304;PMS7003;65692;51.378;19.824;2023-06-22T08:20:21;7.50;7.50;5.75
55304;PMS7003;65692;51.378;19.824;2023-06-22T08:22:48;11.50;9.50;7.25
55304;PMS7003;65692;51.378;19.824;2023-06-22T08:25:14;7.75;7.75;6.25
55304;PMS7003;65692;51.378;19.824;2023-06-22T08:27:44;10.00;7.50;6.25
55304;PMS7003;65692;51.378;19.824;2023-06-22T08:30:11;7.75;7.75;6.00
55304;PMS7003;65692;51.378;19.824;2023-06-22T08:32:37;9.25;8.25;6.75
55304;PMS7003;65692;51.378;19.824;2023-06-22T08:35:04;11.00;8.75;6.25
55304;PMS7003;65692;51.378;19.824;2023-06-22T08:37:32;8.75;7.50;5.50
55304;PMS7003;65692;51.378;19.824;2023-06-22T08:40:03;9.75;9.75;7.25
55304;PMS7003;65692;51.378;19.824;2023-06-22T08:42:34;8.25;8.25;7.25
55304;PMS7003;65692;51.378;19.824;2023-06-22T08:45:01;5.75;5.75;5.75
55304;PMS7003;65692;51.378;19.824;2023-06-22T08:47:28;9.25;9.25;8.50
55304;PMS7003;65692;51.378;19.824;2023-06-22T08:49:54;12.00;10.50;8.00
55304;PMS7003;65692;51.378;19.824;2023-06-22T08:52:21;9.50;8.25;6.25
55304;PMS7003;65692;51.378;19.824;2023-06-22T08:54:49;9.00;9.00;6.75
55304;PMS7003;65692;51.378;19.824;2023-06-22T08:57:16;8.25;8.25;6.75
55304;PMS7003;65692;51.378;19.824;2023-06-22T08:59:43;8.75;7.00;6.00
55304;PMS7003;65692;51.378;19.824;2023-06-22T09:02:09;9.75;9.50;6.75
55304;PMS7003;65692;51.378;19.824;2023-06-22T09:04:36;9.50;8.00;7.00
55304;PMS7003;65692;51.378;19.824;2023-06-22T09:07:02;8.50;8.00;6.00
55304;PMS7003;65692;51.378;19.824;2023-06-22T09:09:29;11.75;10.00;7.25
55304;PMS7003;65692;51.378;19.824;2023-06-22T09:11:56;10.00;8.00;7.00
55304;PMS7003;65692;51.378;19.824;2023-06-22T09:14:22;11.75;10.00;8.00
55304;PMS7003;65692;51.378;19.824;2023-06-22T09:16:49;7.25;7.25;6.00
55304;PMS7003;65692;51.378;19.824;2023-06-22T09:19:15;7.00;7.00;5.50
55304;PMS7003;65692;51.378;19.824;2023-06-22T09:21:42;6.25;6.25;5.25
55304;PMS7003;65692;51.378;19.824;2023-06-22T09:24:08;9.00;8.75;5.75
55304;PMS7003;65692;51.378;19.824;2023-06-22T09:26:35;5.00;5.00;2.75
55304;PMS7003;65692;51.378;19.824;2023-06-22T09:29:01;7.00;7.00;5.25
55304;PMS7003;65692;51.378;19.824;2023-06-22T09:31:28;7.00;7.00;6.00
55304;PMS7003;65692;51.378;19.824;2023-06-22T09:33:54;6.00;5.50;5.00
55304;PMS7003;65692;51.378;19.824;2023-06-22T09:36:21;8.25;7.75;6.75
55304;PMS7003;65692;51.378;19.824;2023-06-22T09:38:48;6.25;6.25;5.50
55304;PMS7003;65692;51.378;19.824;2023-06-22T09:41:15;8.25;8.25;5.75
55304;PMS7003;65692;51.378;19.824;2023-06-22T09:43:42;7.50;7.50;5.25
55304;PMS7003;65692;51.378;19.824;2023-06-22T09:46:08;6.25;6.25;5.75
55304;PMS7003;65692;51.378;19.824;2023-06-22T09:48:35;6.00;6.00;5.00
55304;PMS7003;65692;51.378;19.824;2023-06-22T09:51:05;6.50;6.50;5.00
55304;PMS7003;65692;51.378;19.824;2023-06-22T09:53:32;8.00;7.50;6.50
55304;PMS7003;65692;51.378;19.824;2023-06-22T09:56:01;9.75;6.75;5.75
55304;PMS7003;65692;51.378;19.824;2023-06-22T09:58:28;6.75;6.25;5.00
55304;PMS7003;65692;51.378;19.824;2023-06-22T10:00:54;5.75;5.75;5.00
55304;PMS7003;65692;51.378;19.824;2023-06-22T10:03:21;9.00;7.25;6.00
55304;PMS7003;65692;51.378;19.824;2023-06-22T10:05:48;7.50;7.50;5.75
55304;PMS7003;65692;51.378;19.824;2023-06-22T10:08:14;7.00;7.00;5.50
55304;PMS7003;65692;51.378;19.824;2023-06-22T10:10:41;9.25;6.00;4.50
55304;PMS7003;65692;51.378;19.824;2023-06-22T10:13:10;6.50;6.50;5.25
55304;PMS7003;65692;51.378;19.824;2023-06-22T10:15:38;6.00;5.75;5.00
55304;PMS7003;65692;51.378;19.824;2023-06-22T10:18:04;7.75;7.00;6.00
55304;PMS7003;65692;51.378;19.824;2023-06-22T10:20:31;7.25;7.00;5.00
55304;PMS7003;65692;51.378;19.824;2023-06-22T10:22:57;6.25;5.00;4.00
55304;PMS7003;65692;51.378;19.824;2023-06-22T10:25:26;8.00;5.50;4.50
55304;PMS7003;65692;51.378;19.824;2023-06-22T10:27:53;8.00;6.75;5.50
55304;PMS7003;65692;51.378;19.824;2023-06-22T10:30:19;7.00;5.75;4.75
55304;PMS7003;65692;51.378;19.824;2023-06-22T10:32:46;7.75;6.75;5.00
55304;PMS7003;65692;51.378;19.824;2023-06-22T10:35:14;5.75;5.75;5.00
55304;PMS7003;65692;51.378;19.824;2023-06-22T10:37:43;10.00;7.00;5.00
55304;PMS7003;65692;51.378;19.824;2023-06-22T10:40:10;6.00;6.00;4.25
55304;PMS7003;65692;51.378;19.824;2023-06-22T10:42:37;5.50;5.50;4.75
55304;PMS7003;65692;51.378;19.824;2023-06-22T10:45:04;7.75;7.75;6.00
55304;PMS7003;65692;51.378;19.824;2023-06-22T10:47:30;7.75;7.00;5.25
55304;PMS7003;65692;51.378;19.824;2023-06-22T10:49:57;7.00;7.00;5.00
55304;PMS7003;65692;51.378;19.824;2023-06-22T10:52:23;2.25;1.25;1.00
55304;PMS7003;65692;51.378;19.824;2023-06-22T10:54:50;6.25;6.00;4.25
55304;PMS7003;65692;51.378;19.824;2023-06-22T10:57:16;7.00;7.00;5.50
55304;PMS7003;65692;51.378;19.824;2023-06-22T10:59:43;8.75;7.50;4.50
55304;PMS7003;65692;51.378;19.824;2023-06-22T11:02:09;7.50;6.50;5.50
55304;PMS7003;65692;51.378;19.824;2023-06-22T11:04:36;5.25;5.00;4.25
55304;PMS7003;65692;51.378;19.824;2023-06-22T11:07:02;5.25;5.25;4.00
55304;PMS7003;65692;51.378;19.824;2023-06-22T11:09:29;6.25;4.25;3.75
55304;PMS7003;65692;51.378;19.824;2023-06-22T11:11:55;6.00;5.00;3.75
55304;PMS7003;65692;51.378;19.824;2023-06-22T11:14:22;4.25;4.25;3.50
55304;PMS7003;65692;51.378;19.824;2023-06-22T11:16:49;6.00;6.00;4.00
55304;PMS7003;65692;51.378;19.824;2023-06-22T11:19:15;7.75;6.25;4.25
55304;PMS7003;65692;51.378;19.824;2023-06-22T11:21:42;6.25;6.25;5.00
55304;PMS7003;65692;51.378;19.824;2023-06-22T11:24:08;7.00;6.00;4.50
55304;PMS7003;65692;51.378;19.824;2023-06-22T11:26:35;7.00;6.75;4.75
55304;PMS7003;65692;51.378;19.824;2023-06-22T11:29:02;6.50;5.75;4.75
55304;PMS7003;65692;51.378;19.824;2023-06-22T11:31:31;4.25;4.25;3.50
55304;PMS7003;65692;51.378;19.824;2023-06-22T11:33:58;7.00;5.00;4.00
55304;PMS7003;65692;51.378;19.824;2023-06-22T11:36:25;6.75;5.00;4.00
55304;PMS7003;65692;51.378;19.824;2023-06-22T11:38:52;4.25;4.25;3.25
55304;PMS7003;65692;51.378;19.824;2023-06-22T11:41:18;6.50;5.75;4.00
55304;PMS7003;65692;51.378;19.824;2023-06-22T11:43:45;5.00;5.00;4.75
55304;PMS7003;65692;51.378;19.824;2023-06-22T11:46:11;4.25;4.25;3.00
55304;PMS7003;65692;51.378;19.824;2023-06-22T11:48:38;5.00;5.00;3.75
55304;PMS7003;65692;51.378;19.824;2023-06-22T11:51:05;6.50;4.50;3.75
55304;PMS7003;65692;51.378;19.824;2023-06-22T11:53:32;4.50;4.50;4.00
55304;PMS7003;65692;51.378;19.824;2023-06-22T11:56:00;5.00;4.00;3.00
55304;PMS7003;65692;51.378;19.824;2023-06-22T11:58:27;2.25;2.25;2.00
55304;PMS7003;65692;51.378;19.824;2023-06-22T12:00:53;4.00;2.50;2.00
55304;PMS7003;65692;51.378;19.824;2023-06-22T12:03:21;6.00;4.00;2.00
55304;PMS7003;65692;51.378;19.824;2023-06-22T12:05:49;2.00;2.00;2.00
55304;PMS7003;65692;51.378;19.824;2023-06-22T12:08:16;4.00;2.50;2.00
55304;PMS7003;65692;51.378;19.824;2023-06-22T12:10:42;3.25;3.25;3.00
55304;PMS7003;65692;51.378;19.824;2023-06-22T12:13:09;3.00;3.00;2.50
55304;PMS7003;65692;51.378;19.824;2023-06-22T12:15:35;3.25;3.25;3.00
55304;PMS7003;65692;51.378;19.824;2023-06-22T12:18:02;3.00;3.00;3.00
55304;PMS7003;65692;51.378;19.824;2023-06-22T12:20:29;2.75;1.75;1.75
55304;PMS7003;65692;51.378;19.824;2023-06-22T12:22:55;2.50;2.50;1.75
55304;PMS7003;65692;51.378;19.824;2023-06-22T12:25:24;3.50;3.50;2.75
55304;PMS7003;65692;51.378;19.824;2023-06-22T12:27:51;2.00;2.00;2.00
55304;PMS7003;65692;51.378;19.824;2023-06-22T12:30:17;2.25;2.25;2.00
55304;PMS7003;65692;51.378;19.824;2023-06-22T12:32:44;3.75;3.75;2.75
55304;PMS7003;65692;51.378;19.824;2023-06-22T12:35:10;3.25;3.25;3.00
55304;PMS7003;65692;51.378;19.824;2023-06-22T12:37:41;3.50;3.50;3.00
55304;PMS7003;65692;51.378;19.824;2023-06-22T12:40:08;3.00;3.00;2.00
55304;PMS7003;65692;51.378;19.824;2023-06-22T12:42:34;3.25;3.25;2.25
55304;PMS7003;65692;51.378;19.824;2023-06-22T12:45:01;3.00;3.00;2.00
55304;PMS7003;65692;51.378;19.824;2023-06-22T12:47:28;1.50;1.50;1.00
55304;PMS7003;65692;51.378;19.824;2023-06-22T12:49:54;4.00;4.00;3.00
55304;PMS7003;65692;51.378;19.824;2023-06-22T12:52:21;4.00;3.00;2.25
55304;PMS7003;65692;51.378;19.824;2023-06-22T12:54:47;3.50;3.50;3.25
55304;PMS7003;65692;51.378;19.824;2023-06-22T12:57:21;3.00;3.00;2.25
55304;PMS7003;65692;51.378;19.824;2023-06-22T12:59:47;3.00;3.00;2.00
55304;PMS7003;65692;51.378;19.824;2023-06-22T13:02:14;3.00;3.00;2.25
55304;PMS7003;65692;51.378;19.824;2023-06-22T13:04:40;3.50;2.75;1.75
55304;PMS7003;65692;51.378;19.824;2023-06-22T13:07:07;3.00;3.00;2.75
55304;PMS7003;65692;51.378;19.824;2023-06-22T13:09:48;2.50;2.50;2.00
55304;PMS7003;65692;51.378;19.824;2023-06-22T13:12:19;3.75;3.75;3.00
55304;PMS7003;65692;51.378;19.824;2023-06-22T13:14:46;2.00;2.00;2.00
55304;PMS7003;65692;51.378;19.824;2023-06-22T13:17:13;3.25;3.25;3.00
55304;PMS7003;65692;51.378;19.824;2023-06-22T13:19:40;3.00;3.00;2.75
55304;PMS7003;65692;51.378;19.824;2023-06-22T13:24:52;4.50;4.50;2.00
55304;PMS7003;65692;51.378;19.824;2023-06-22T13:27:21;3.00;3.00;2.25
55304;PMS7003;65692;51.378;19.824;2023-06-22T13:29:47;4.50;3.50;3.00
55304;PMS7003;65692;51.378;19.824;2023-06-22T13:32:14;6.50;4.00;3.00
55304;PMS7003;65692;51.378;19.824;2023-06-22T13:34:41;1.00;1.00;1.00
55304;PMS7003;65692;51.378;19.824;2023-06-22T13:37:07;3.25;3.00;3.00
55304;PMS7003;65692;51.378;19.824;2023-06-22T13:39:34;5.00;3.50;2.50
55304;PMS7003;65692;51.378;19.824;2023-06-22T13:42:00;2.25;2.25;2.00
55304;PMS7003;65692;51.378;19.824;2023-06-22T13:44:27;3.75;3.50;3.00
55304;PMS7003;65692;51.378;19.824;2023-06-22T13:46:55;2.75;2.75;2.25
55304;PMS7003;65692;51.378;19.824;2023-06-22T13:49:21;4.00;4.00;3.00
55304;PMS7003;65692;51.378;19.824;2023-06-22T13:51:48;4.00;3.00;3.00
55304;PMS7003;65692;51.378;19.824;2023-06-22T13:54:15;4.00;3.75;3.00
55304;PMS7003;65692;51.378;19.824;2023-06-22T13:56:55;3.25;3.25;3.00
55304;PMS7003;65692;51.378;19.824;2023-06-22T13:59:22;3.25;3.00;2.25
55304;PMS7003;65692;51.378;19.824;2023-06-22T14:01:48;4.00;4.00;3.00